createdAt,value
2023-08-25T00:01:36.266Z,47.79
2023-08-25T00:04:04.529Z,47.65
2023-08-25T00:06:32.532Z,47.40
2023-08-25T00:09:00.437Z,47.28
2023-08-25T00:11:28.495Z,47.22
2023-08-25T00:13:56.476Z,47.33
2023-08-25T00:16:24.442Z,47.20
2023-08-25T00:18:53.934Z,47.25
2023-08-25T00:21:21.848Z,47.27
2023-08-25T00:23:49.806Z,47.09
2023-08-25T00:26:17.784Z,47.24
2023-08-25T00:28:45.904Z,47.24
2023-08-25T00:31:15.191Z,47.17
2023-08-25T00:33:50.280Z,47.44
2023-08-25T00:36:20.091Z,47.06
2023-08-25T00:38:48.142Z,47.25
2023-08-25T00:41:16.196Z,46.95
2023-08-25T00:43:44.233Z,47.40
2023-08-25T00:46:13.404Z,46.87
2023-08-25T00:48:42.763Z,47.19
2023-08-25T00:51:11.351Z,47.27
2023-08-25T00:53:43.183Z,47.17
2023-08-25T00:56:13.421Z,47.03
2023-08-25T00:58:41.772Z,46.82
2023-08-25T01:01:10.974Z,47.36
2023-08-25T01:03:41.270Z,47.19
2023-08-25T01:06:10.619Z,47.16
2023-08-25T01:08:39.781Z,47.23
2023-08-25T01:11:22.676Z,47.07
2023-08-25T01:14:02.877Z,47.13
2023-08-25T01:16:37.796Z,47.00
2023-08-25T01:19:07.262Z,47.11
2023-08-25T01:21:37.645Z,47.25
2023-08-25T01:24:14.479Z,46.86
2023-08-25T01:26:44.254Z,46.83
2023-08-25T01:29:12.195Z,47.06
2023-08-25T01:31:41.848Z,46.92
2023-08-25T01:34:10.574Z,46.83
2023-08-25T01:36:46.756Z,46.66
2023-08-25T01:39:17.989Z,46.69
2023-08-25T01:41:48.861Z,46.77
2023-08-25T01:44:19.324Z,46.86
2023-08-25T01:46:52.442Z,46.86
2023-08-25T01:49:21.676Z,46.84
2023-08-25T01:51:49.864Z,46.75
2023-08-25T01:54:19.628Z,46.55
2023-08-25T01:56:49.001Z,46.45
2023-08-25T01:59:17.104Z,46.65
2023-08-25T02:01:45.188Z,46.61
2023-08-25T02:04:13.254Z,46.72
2023-08-25T02:06:41.310Z,46.81
2023-08-25T02:09:09.424Z,46.88
2023-08-25T02:11:37.440Z,46.65
2023-08-25T02:14:06.858Z,46.82
2023-08-25T02:16:35.239Z,46.82
2023-08-25T02:19:03.634Z,46.56
2023-08-25T02:21:31.648Z,46.79
2023-08-25T02:23:59.688Z,46.62
2023-08-25T02:26:27.655Z,46.70
2023-08-25T02:28:55.922Z,46.63
2023-08-25T02:31:25.305Z,46.35
2023-08-25T02:33:53.248Z,46.45
2023-08-25T02:36:21.177Z,46.57
2023-08-25T02:38:49.168Z,46.34
2023-08-25T02:41:17.167Z,46.46
2023-08-25T02:43:45.234Z,46.28
2023-08-25T02:46:14.727Z,46.11
2023-08-25T02:48:44.224Z,46.18
2023-08-25T02:51:12.144Z,46.45
2023-08-25T02:53:40.415Z,46.34
2023-08-25T02:56:08.367Z,46.42
2023-08-25T02:58:36.414Z,46.47
2023-08-25T03:01:13.326Z,46.33
2023-08-25T03:03:41.655Z,46.43
2023-08-25T03:06:11.074Z,46.24
2023-08-25T03:08:39.097Z,46.35
2023-08-25T03:11:07.288Z,46.39
2023-08-25T03:13:36.473Z,46.54
2023-08-25T03:16:04.724Z,46.39
2023-08-25T03:18:33.314Z,46.53
2023-08-25T03:21:02.221Z,46.64
2023-08-25T03:23:32.081Z,46.39
2023-08-25T03:26:00.496Z,46.64
2023-08-25T03:28:28.492Z,46.57
2023-08-25T03:30:56.867Z,46.44
2023-08-25T03:33:26.430Z,46.66
2023-08-25T03:35:54.661Z,46.63
2023-08-25T03:38:22.713Z,46.50
2023-08-25T03:41:00.516Z,46.38
2023-08-25T03:43:28.776Z,46.57
2023-08-25T03:45:56.773Z,46.60
2023-08-25T03:48:25.716Z,46.36
2023-08-25T03:50:55.265Z,46.23
2023-08-25T03:53:23.382Z,46.19
2023-08-25T03:55:52.496Z,46.54
2023-08-25T03:58:21.820Z,46.50
2023-08-25T04:00:54.060Z,46.54
2023-08-25T04:03:22.705Z,46.34
2023-08-25T04:05:50.807Z,46.30
2023-08-25T04:08:18.839Z,46.36
2023-08-25T04:10:48.533Z,46.48
2023-08-25T04:13:16.811Z,46.28
2023-08-25T04:15:46.223Z,46.30
2023-08-25T04:18:14.307Z,46.68
2023-08-25T04:20:42.593Z,46.55
2023-08-25T04:23:10.781Z,46.32
2023-08-25T04:25:38.768Z,46.73
2023-08-25T04:28:07.574Z,46.67
2023-08-25T04:30:35.675Z,46.49
2023-08-25T04:33:12.318Z,46.87
2023-08-25T04:35:41.583Z,46.66
2023-08-25T04:38:09.807Z,47.07
2023-08-25T04:40:38.056Z,46.83
2023-08-25T04:43:06.706Z,46.76
2023-08-25T04:45:34.824Z,46.85
2023-08-25T04:48:03.389Z,46.64
2023-08-25T04:50:32.982Z,46.52
2023-08-25T04:53:03.337Z,46.73
2023-08-25T04:55:31.494Z,46.70
2023-08-25T04:57:59.527Z,46.87
2023-08-25T05:00:30.365Z,47.00
2023-08-25T05:02:58.610Z,46.94
2023-08-25T05:05:26.674Z,46.80
2023-08-25T05:07:58.766Z,47.10
2023-08-25T05:10:27.258Z,46.88
2023-08-25T05:12:55.296Z,47.09
2023-08-25T05:15:23.313Z,46.95
2023-08-25T05:17:51.486Z,46.94
2023-08-25T05:20:21.984Z,47.02
2023-08-25T05:22:52.016Z,47.34
2023-08-25T05:25:22.905Z,47.23
2023-08-25T05:27:51.104Z,47.42
2023-08-25T05:30:20.400Z,47.55
2023-08-25T05:32:49.357Z,47.35
2023-08-25T05:35:35.919Z,47.48
2023-08-25T05:38:03.992Z,47.33
2023-08-25T05:40:33.454Z,47.61
2023-08-25T05:43:01.502Z,47.39
2023-08-25T05:45:29.558Z,47.43
2023-08-25T05:47:57.860Z,47.46
2023-08-25T05:50:26.041Z,47.73
2023-08-25T05:52:54.532Z,47.65
2023-08-25T05:55:24.885Z,47.77
2023-08-25T05:57:54.926Z,47.74
2023-08-25T06:00:23.172Z,47.47
2023-08-25T06:02:51.108Z,47.90
2023-08-25T06:05:18.996Z,47.77
2023-08-25T06:07:46.899Z,47.71
2023-08-25T06:10:14.928Z,47.88
2023-08-25T06:12:42.919Z,48.10
2023-08-25T06:15:12.678Z,47.96
2023-08-25T06:17:40.796Z,48.09
2023-08-25T06:20:13.174Z,48.01
2023-08-25T06:22:42.724Z,48.27
2023-08-25T06:25:11.487Z,47.87
2023-08-25T06:27:39.524Z,48.23
2023-08-25T06:30:09.275Z,48.31
2023-08-25T06:32:38.750Z,48.52
2023-08-25T06:35:07.905Z,48.64
2023-08-25T06:37:36.024Z,48.48
2023-08-25T06:40:06.552Z,49.16
2023-08-25T06:42:34.476Z,48.99
2023-08-25T06:45:02.496Z,48.99
2023-08-25T06:47:31.466Z,49.17
2023-08-25T06:50:00.803Z,49.14
2023-08-25T06:52:28.977Z,49.11
2023-08-25T06:54:56.934Z,49.47
2023-08-25T06:57:25.228Z,49.25
2023-08-25T06:59:53.435Z,49.11
2023-08-25T07:02:21.345Z,49.26
2023-08-25T07:04:49.346Z,49.22
2023-08-25T07:07:26.590Z,49.43
2023-08-25T07:09:55.286Z,49.15
2023-08-25T07:12:23.268Z,49.15
2023-08-25T07:14:51.345Z,49.34
2023-08-25T07:17:19.265Z,49.26
2023-08-25T07:19:47.250Z,49.34
2023-08-25T07:22:15.287Z,49.27
2023-08-25T07:24:44.654Z,49.16
2023-08-25T07:27:12.647Z,49.22
2023-08-25T07:29:40.805Z,49.14
2023-08-25T07:32:09.342Z,49.35
2023-08-25T07:34:37.450Z,49.20
2023-08-25T07:37:06.344Z,49.15
2023-08-25T07:39:34.346Z,49.44
2023-08-25T07:42:03.620Z,49.53
2023-08-25T07:44:31.600Z,49.62
2023-08-25T07:46:59.624Z,49.54
2023-08-25T07:49:27.820Z,49.47
2023-08-25T07:51:55.785Z,49.40
2023-08-25T07:54:23.706Z,49.75
2023-08-25T07:56:51.753Z,49.47
2023-08-25T07:59:21.136Z,49.39
2023-08-25T08:01:49.139Z,49.72
2023-08-25T08:04:17.074Z,49.49
2023-08-25T08:06:45.169Z,49.74
2023-08-25T08:09:13.204Z,49.66
2023-08-25T08:11:41.587Z,49.73
2023-08-25T08:14:09.565Z,49.85
2023-08-25T08:16:39.101Z,49.90
2023-08-25T08:19:07.375Z,50.00
2023-08-25T08:21:35.402Z,49.83
2023-08-25T08:24:03.916Z,49.93
2023-08-25T08:26:31.924Z,50.03
2023-08-25T08:28:59.919Z,50.01
2023-08-25T08:31:27.896Z,49.76
2023-08-25T08:33:57.360Z,49.94
2023-08-25T08:36:25.403Z,49.81
2023-08-25T08:38:53.791Z,50.01
2023-08-25T08:41:22.475Z,49.92
2023-08-25T08:43:54.522Z,50.23
2023-08-25T08:46:23.793Z,50.09
2023-08-25T08:48:53.866Z,50.22
2023-08-25T08:51:31.677Z,50.36
2023-08-25T08:54:00.424Z,50.37
2023-08-25T08:56:29.110Z,49.92
2023-08-25T08:58:57.636Z,50.08
2023-08-25T09:01:25.818Z,50.19
2023-08-25T09:03:56.162Z,50.13
2023-08-25T09:06:24.376Z,50.16
2023-08-25T09:08:55.009Z,50.03
2023-08-25T09:11:22.987Z,50.11
2023-08-25T09:13:58.245Z,50.13
2023-08-25T09:16:27.166Z,50.50
2023-08-25T09:18:55.277Z,50.10
2023-08-25T09:21:25.986Z,50.25
2023-08-25T09:23:59.646Z,50.18
2023-08-25T09:26:30.674Z,50.47
2023-08-25T09:29:00.531Z,50.32
2023-08-25T09:31:30.006Z,50.21
2023-08-25T09:34:01.612Z,50.06
2023-08-25T09:36:29.837Z,50.25
2023-08-25T09:39:03.672Z,50.03
2023-08-25T09:41:35.539Z,50.36
2023-08-25T09:44:04.725Z,50.17
2023-08-25T09:46:34.072Z,50.06
2023-08-25T09:49:03.569Z,50.52
2023-08-25T09:51:40.403Z,50.21
2023-08-25T09:54:11.562Z,50.09
2023-08-25T09:56:41.125Z,50.08
2023-08-25T09:59:10.722Z,50.50
2023-08-25T10:01:40.821Z,50.27
2023-08-25T10:04:09.076Z,50.35
2023-08-25T10:06:38.737Z,50.47
2023-08-25T10:09:07.365Z,50.63
2023-08-25T10:11:41.264Z,50.46
2023-08-25T10:14:12.117Z,50.47
2023-08-25T10:16:42.195Z,50.34
2023-08-25T10:19:15.913Z,50.49
2023-08-25T10:21:45.720Z,50.18
2023-08-25T10:24:16.436Z,50.40
2023-08-25T10:26:47.062Z,50.45
2023-08-25T10:29:18.520Z,50.34
2023-08-25T10:31:52.010Z,50.44
2023-08-25T10:34:34.501Z,50.68
2023-08-25T10:37:10.832Z,50.53
2023-08-25T10:39:49.701Z,50.14
2023-08-25T10:42:24.877Z,50.60
2023-08-25T10:44:57.199Z,50.39
2023-08-25T10:47:26.109Z,50.30
2023-08-25T10:49:56.108Z,50.50
2023-08-25T10:52:24.949Z,50.19
2023-08-25T10:54:54.458Z,50.39
2023-08-25T10:57:42.811Z,50.17
2023-08-25T11:00:28.581Z,50.53
2023-08-25T11:02:56.961Z,50.44
2023-08-25T11:05:46.003Z,50.31
2023-08-25T11:08:29.463Z,50.41
2023-08-25T11:11:19.042Z,50.26
2023-08-25T11:13:49.407Z,50.29
2023-08-25T11:16:17.561Z,50.51
2023-08-25T11:18:45.795Z,50.07
2023-08-25T11:21:15.549Z,50.08
2023-08-25T11:23:45.783Z,50.35
2023-08-25T11:26:17.862Z,50.38
2023-08-25T11:28:50.991Z,50.13
2023-08-25T11:31:21.697Z,50.46
2023-08-25T11:33:49.725Z,50.18
2023-08-25T11:36:18.330Z,50.08
2023-08-25T11:38:50.313Z,50.14
2023-08-25T11:41:18.642Z,50.48
2023-08-25T11:43:49.541Z,50.33
2023-08-25T11:46:19.119Z,50.48
2023-08-25T11:48:49.620Z,50.47
2023-08-25T11:51:19.678Z,50.46
2023-08-25T11:53:48.052Z,50.47
2023-08-25T11:56:18.187Z,50.42
2023-08-25T11:58:50.184Z,50.16
2023-08-25T12:01:18.646Z,50.23
2023-08-25T12:03:46.777Z,50.19
2023-08-25T12:06:16.383Z,50.30
2023-08-25T12:08:44.694Z,50.19
2023-08-25T12:11:13.214Z,50.10
2023-08-25T12:13:45.340Z,50.11
2023-08-25T12:16:15.299Z,49.84
2023-08-25T12:18:44.306Z,49.82
2023-08-25T12:21:12.395Z,50.01
2023-08-25T12:23:41.644Z,49.99
2023-08-25T12:26:12.988Z,49.82
2023-08-25T12:28:41.475Z,50.10
2023-08-25T12:31:09.661Z,49.72
2023-08-25T12:33:39.025Z,49.92
2023-08-25T12:36:07.171Z,49.75
2023-08-25T12:38:35.237Z,49.89
2023-08-25T12:41:03.483Z,49.91
2023-08-25T12:43:31.450Z,49.74
2023-08-25T12:45:59.486Z,49.41
2023-08-25T12:48:28.569Z,49.67
2023-08-25T12:50:58.111Z,49.63
2023-08-25T12:53:26.133Z,49.81
2023-08-25T12:55:54.610Z,49.55
2023-08-25T12:58:22.633Z,49.41
2023-08-25T13:00:50.679Z,49.85
2023-08-25T13:03:18.676Z,49.72
2023-08-25T13:05:46.800Z,49.33
2023-08-25T13:08:16.202Z,49.36
2023-08-25T13:10:44.275Z,48.97
2023-08-25T13:13:12.364Z,49.36
2023-08-25T13:15:40.347Z,49.32
2023-08-25T13:18:09.327Z,49.14
2023-08-25T13:20:37.342Z,49.03
2023-08-25T13:23:09.734Z,49.40
2023-08-25T13:25:47.606Z,49.17
2023-08-25T13:28:16.042Z,49.15
2023-08-25T13:30:44.011Z,49.02
2023-08-25T13:33:11.952Z,49.28
2023-08-25T13:35:39.909Z,49.38
2023-08-25T13:38:07.889Z,49.02
2023-08-25T13:40:35.943Z,49.11
2023-08-25T13:43:05.692Z,49.16
2023-08-25T13:45:33.664Z,49.34
2023-08-25T13:48:02.210Z,49.03
2023-08-25T13:50:31.635Z,48.89
2023-08-25T13:52:59.817Z,49.08
2023-08-25T13:55:28.290Z,48.89
2023-08-25T13:57:57.160Z,48.73
2023-08-25T14:00:27.232Z,48.84
2023-08-25T14:02:55.288Z,49.10
2023-08-25T14:05:23.381Z,48.93
2023-08-25T14:07:51.821Z,48.80
2023-08-25T14:10:20.114Z,48.85
2023-08-25T14:12:48.097Z,48.71
2023-08-25T14:15:16.208Z,48.90
2023-08-25T14:17:45.674Z,48.94
2023-08-25T14:20:13.895Z,48.60
2023-08-25T14:22:41.901Z,48.77
2023-08-25T14:25:10.463Z,48.75
2023-08-25T14:27:38.840Z,48.74
2023-08-25T14:30:08.360Z,48.81
2023-08-25T14:32:36.415Z,48.88
2023-08-25T14:35:06.463Z,48.72
2023-08-25T14:37:35.240Z,48.92
2023-08-25T14:40:03.944Z,49.22
2023-08-25T14:42:31.993Z,49.30
2023-08-25T14:44:59.992Z,48.88
2023-08-25T14:47:28.097Z,49.16
2023-08-25T14:49:56.572Z,49.01
2023-08-25T14:52:28.007Z,49.06
2023-08-25T14:54:56.017Z,49.49
2023-08-25T14:57:24.072Z,49.50
2023-08-25T14:59:52.527Z,49.16
2023-08-25T15:02:20.469Z,49.72
2023-08-25T15:04:48.797Z,49.34
2023-08-25T15:07:16.761Z,49.44
2023-08-25T15:09:46.104Z,49.52
2023-08-25T15:12:14.140Z,49.72
2023-08-25T15:14:42.073Z,49.75
2023-08-25T15:17:10.298Z,49.92
2023-08-25T15:19:38.233Z,49.69
2023-08-25T15:22:06.368Z,49.45
2023-08-25T15:24:34.408Z,49.57
2023-08-25T15:27:03.881Z,49.64
2023-08-25T15:29:48.740Z,49.77
2023-08-25T15:32:19.756Z,49.80
2023-08-25T15:34:48.951Z,49.67
2023-08-25T15:37:16.895Z,49.81
2023-08-25T15:39:44.923Z,49.48
2023-08-25T15:42:15.550Z,49.90
2023-08-25T15:44:44.363Z,49.91
2023-08-25T15:47:12.431Z,49.85
2023-08-25T15:49:40.352Z,49.87
2023-08-25T15:52:08.564Z,49.60
2023-08-25T15:54:36.543Z,49.84
2023-08-25T15:57:04.775Z,49.78
2023-08-25T15:59:34.206Z,49.70
2023-08-25T16:02:02.124Z,49.88
2023-08-25T16:04:30.140Z,49.79
2023-08-25T16:06:58.101Z,49.63
2023-08-25T16:09:26.012Z,49.79
2023-08-25T16:11:54.912Z,49.62
2023-08-25T16:14:22.914Z,49.80
2023-08-25T16:16:52.529Z,50.11
2023-08-25T16:19:20.594Z,49.91
2023-08-25T16:21:48.605Z,49.93
2023-08-25T16:24:16.637Z,50.32
2023-08-25T16:26:44.654Z,50.78
2023-08-25T16:29:12.655Z,50.68
2023-08-25T16:31:40.642Z,50.79
2023-08-25T16:34:10.160Z,51.22
2023-08-25T16:36:38.283Z,50.94
2023-08-25T16:39:06.520Z,51.18
2023-08-25T16:41:34.564Z,50.96
2023-08-25T16:44:02.546Z,51.22
2023-08-25T16:46:30.610Z,51.03
2023-08-25T16:48:58.583Z,50.81
2023-08-25T16:51:27.931Z,51.05
2023-08-25T16:53:55.918Z,50.63
2023-08-25T16:56:24.051Z,50.51
2023-08-25T16:58:54.014Z,51.04
2023-08-25T17:01:22.134Z,50.96
2023-08-25T17:03:51.024Z,50.87
2023-08-25T17:06:19.675Z,50.90
2023-08-25T17:08:49.157Z,50.86
2023-08-25T17:11:17.209Z,51.12
2023-08-25T17:13:45.213Z,51.11
2023-08-25T17:16:14.420Z,50.78
2023-08-25T17:18:42.518Z,50.82
2023-08-25T17:21:10.749Z,50.99
2023-08-25T17:23:39.406Z,51.25
2023-08-25T17:26:08.979Z,50.89
2023-08-25T17:28:36.870Z,50.95
2023-08-25T17:31:08.587Z,51.00
2023-08-25T17:33:37.337Z,50.77
2023-08-25T17:36:06.364Z,50.70
2023-08-25T17:38:35.147Z,51.09
2023-08-25T17:41:11.414Z,50.96
2023-08-25T17:43:40.426Z,51.35
2023-08-25T17:46:08.878Z,51.10
2023-08-25T17:48:37.026Z,51.08
2023-08-25T17:51:05.213Z,51.38
2023-08-25T17:53:36.077Z,51.33
2023-08-25T17:56:04.543Z,51.31
2023-08-25T17:58:33.870Z,51.35
2023-08-25T18:01:05.506Z,51.25
2023-08-25T18:03:35.146Z,51.43
2023-08-25T18:06:04.996Z,51.27
2023-08-25T18:08:36.119Z,51.36
2023-08-25T18:11:04.466Z,51.43
2023-08-25T18:13:36.125Z,51.61
2023-08-25T18:16:06.900Z,51.44
2023-08-25T18:18:35.140Z,51.37
2023-08-25T18:21:03.873Z,51.19
2023-08-25T18:23:32.678Z,51.38
2023-08-25T18:26:03.728Z,51.20
2023-08-25T18:28:33.087Z,51.20
2023-08-25T18:31:04.194Z,51.04
2023-08-25T18:33:35.144Z,51.20
2023-08-25T18:36:03.162Z,51.03
2023-08-25T18:38:31.177Z,51.30
2023-08-25T18:40:59.279Z,51.13
2023-08-25T18:43:27.341Z,51.12
2023-08-25T18:45:59.333Z,51.11
2023-08-25T18:48:27.955Z,51.50
2023-08-25T18:50:55.958Z,51.23
2023-08-25T18:53:24.046Z,51.46
2023-08-25T18:55:52.503Z,51.43
2023-08-25T18:58:21.369Z,51.18
2023-08-25T19:00:51.243Z,51.20
2023-08-25T19:03:21.712Z,51.38
2023-08-25T19:05:51.162Z,51.45
2023-08-25T19:08:19.115Z,51.33
2023-08-25T19:10:47.335Z,51.22
2023-08-25T19:13:16.247Z,51.14
2023-08-25T19:15:44.593Z,51.19
2023-08-25T19:18:12.644Z,51.31
2023-08-25T19:20:42.106Z,51.13
2023-08-25T19:23:10.073Z,51.56
2023-08-25T19:25:38.155Z,51.19
2023-08-25T19:28:06.507Z,51.34
2023-08-25T19:30:34.566Z,51.44
2023-08-25T19:33:03.015Z,51.01
2023-08-25T19:35:34.504Z,51.36
2023-08-25T19:38:03.987Z,51.14
2023-08-25T19:40:32.897Z,51.00
2023-08-25T19:43:01.100Z,50.98
2023-08-25T19:45:29.029Z,51.31
2023-08-25T19:47:57.507Z,51.28
2023-08-25T19:50:25.548Z,51.13
2023-08-25T19:52:53.827Z,51.31
2023-08-25T19:55:23.401Z,51.10
2023-08-25T19:57:51.414Z,51.29
2023-08-25T20:00:19.693Z,51.42
2023-08-25T20:02:48.697Z,51.32
2023-08-25T20:05:16.726Z,51.21
2023-08-25T20:07:44.830Z,51.13
2023-08-25T20:10:13.751Z,51.33
2023-08-25T20:12:43.117Z,50.88
2023-08-25T20:15:13.626Z,51.30
2023-08-25T20:17:41.642Z,51.43
2023-08-25T20:20:12.096Z,51.42
2023-08-25T20:22:40.294Z,51.17
2023-08-25T20:25:10.317Z,51.14
2023-08-25T20:27:38.534Z,51.32
2023-08-25T20:30:09.269Z,50.90
2023-08-25T20:32:37.424Z,51.23
2023-08-25T20:35:06.310Z,51.17
2023-08-25T20:37:34.391Z,51.12
2023-08-25T20:40:02.410Z,51.10
2023-08-25T20:42:30.354Z,51.35
2023-08-25T20:44:58.290Z,51.31
2023-08-25T20:47:27.823Z,50.81
2023-08-25T20:49:55.776Z,51.31
2023-08-25T20:52:24.055Z,50.92
2023-08-25T20:54:52.035Z,50.84
2023-08-25T20:57:20.026Z,50.91
2023-08-25T20:59:48.107Z,51.07
2023-08-25T21:02:16.249Z,51.07
2023-08-25T21:04:45.658Z,51.13
2023-08-25T21:07:13.989Z,51.07
2023-08-25T21:09:41.921Z,51.01
2023-08-25T21:12:10.769Z,50.74
2023-08-25T21:14:38.733Z,50.83
2023-08-25T21:17:07.099Z,50.90
2023-08-25T21:19:35.223Z,50.75
2023-08-25T21:22:04.693Z,50.71
2023-08-25T21:24:32.676Z,50.68
2023-08-25T21:27:00.616Z,50.75
2023-08-25T21:29:28.698Z,50.54
2023-08-25T21:31:56.634Z,50.54
2023-08-25T21:34:24.617Z,50.64
2023-08-25T21:36:52.698Z,50.71
2023-08-25T21:39:22.099Z,50.90
2023-08-25T21:41:49.152Z,50.93
2023-08-25T21:44:17.109Z,50.38
2023-08-25T21:46:45.298Z,50.59
2023-08-25T21:49:13.247Z,50.88
2023-08-25T21:51:41.241Z,50.46
2023-08-25T21:54:09.611Z,50.84
2023-08-25T21:56:39.337Z,50.81
2023-08-25T21:59:07.382Z,50.43
2023-08-25T22:01:36.688Z,50.62
2023-08-25T22:04:05.362Z,50.85
2023-08-25T22:06:35.834Z,50.56
2023-08-25T22:09:04.405Z,50.50
2023-08-25T22:11:32.686Z,50.62
2023-08-25T22:14:02.166Z,50.67
2023-08-25T22:16:30.327Z,50.48
2023-08-25T22:18:58.553Z,50.82
2023-08-25T22:21:26.589Z,50.42
2023-08-25T22:23:54.666Z,50.69
2023-08-25T22:26:22.661Z,50.44
2023-08-25T22:28:50.757Z,50.65
2023-08-25T22:31:20.305Z,50.86
2023-08-25T22:36:19.251Z,50.50
2023-08-25T22:38:47.360Z,50.55
2023-08-25T22:41:15.361Z,50.50
2023-08-25T22:43:43.374Z,50.66
2023-08-25T22:46:11.510Z,50.71
2023-08-25T22:48:40.915Z,50.64
2023-08-25T22:51:09.231Z,50.90
2023-08-25T22:53:37.408Z,50.60
2023-08-25T22:56:06.013Z,50.93
2023-08-25T22:58:34.140Z,50.84
2023-08-25T23:01:02.593Z,50.90
2023-08-25T23:03:30.657Z,50.77
2023-08-25T23:06:03.536Z,50.44
2023-08-25T23:08:31.640Z,50.79
2023-08-25T23:10:59.650Z,50.78
2023-08-25T23:13:27.743Z,51.06
2023-08-25T23:15:55.831Z,50.89
2023-08-25T23:18:23.863Z,50.54
2023-08-25T23:20:51.933Z,50.34
2023-08-25T23:23:21.407Z,50.62
2023-08-25T23:25:49.400Z,50.60
2023-08-25T23:28:17.494Z,50.81
2023-08-25T23:30:45.549Z,50.79
2023-08-25T23:33:13.611Z,50.39
2023-08-25T23:35:44.773Z,50.24
2023-08-25T23:38:13.305Z,50.41
2023-08-25T23:40:43.076Z,50.50
2023-08-25T23:43:11.174Z,50.63
2023-08-25T23:45:39.181Z,50.51
2023-08-25T23:48:07.525Z,50.45
2023-08-25T23:50:35.502Z,50.43
2023-08-25T23:53:03.588Z,50.77
2023-08-25T23:55:31.565Z,50.65
2023-08-25T23:58:00.993Z,50.62
